Time;durP1;ratioP1;P1;durP2;ratioP2;P2;SDS_P1;SDS_P2;PMS_P1;PMS_P2;Temp;Humidity;BMP_temperature;BMP_pressure;BME280_temperature;BME280_humidity;BME280_pressure;Samples;Min_cycle;Max_cycle;Signal;HPM_P1;HPM_P2
2022/05/07 00:01:39;;;;;;;26.08;14.65;;;;;;;-144.47;56.88;53301.03;5052418;28;20041;-68
2022/05/07 00:04:04;;;;;;;27.08;14.68;;;;;;;-144.47;56.92;53305.00;5040535;28;20025;-70
2022/05/07 00:06:30;;;;;;;23.77;14.25;;;;;;;-144.47;57.09;53303.00;5053086;28;20029;-68
2022/05/07 00:08:55;;;;;;;28.17;14.73;;;;;;;-144.47;57.44;53334.78;5052255;28;20123;-69
2022/05/07 00:11:21;;;;;;;27.13;14.00;;;;;;;-144.47;57.33;53287.13;5052728;28;20021;-68
2022/05/07 00:13:48;;;;;;;29.35;14.43;;;;;;;-144.47;57.29;53342.72;5052232;28;20036;-68
2022/05/07 00:18:57;;;;;;;27.13;14.57;;;;;;;-144.47;57.65;53326.84;5051589;28;20032;-68
2022/05/07 00:21:22;;;;;;;28.55;13.75;;;;;;;-144.47;57.94;53314.91;5052329;28;20037;-68
2022/05/07 00:23:48;;;;;;;25.60;13.88;;;;;;;-144.47;58.01;53344.72;5053038;28;20117;-69
2022/05/07 00:26:13;;;;;;;24.23;14.13;;;;;;;-144.47;58.18;53324.84;5052893;28;20067;-68
2022/05/07 00:28:38;;;;;;;24.23;14.75;;;;;;;-144.47;58.39;53330.81;5052028;28;20526;-69
2022/05/07 00:31:04;;;;;;;24.15;13.50;;;;;;;-144.47;58.54;53312.94;5052365;28;20021;-67
2022/05/07 00:33:29;;;;;;;26.42;14.23;;;;;;;-144.47;58.69;53344.72;5051178;28;20450;-68
2022/05/07 00:35:54;;;;;;;24.42;14.25;;;;;;;-144.47;58.55;53348.69;5046981;28;20639;-67
2022/05/07 00:38:20;;;;;;;43.40;14.43;;;;;;;-144.47;58.78;53346.72;5050092;28;20025;-67
2022/05/07 00:40:45;;;;;;;24.90;14.38;;;;;;;-144.47;58.66;53340.75;5050800;28;20032;-70
2022/05/07 00:43:15;;;;;;;22.25;12.90;;;;;;;-144.47;58.55;53338.75;5051897;28;20047;-67
2022/05/07 00:45:42;;;;;;;23.33;12.85;;;;;;;-144.47;59.03;53346.72;5050827;28;20024;-67
2022/05/07 00:48:07;;;;;;;24.98;13.75;;;;;;;-144.47;58.92;53324.84;5051642;28;20024;-68
2022/05/07 00:53:16;;;;;;;23.08;12.43;;;;;;;-144.47;59.00;53326.84;5038604;28;20083;-69
2022/05/07 00:55:44;;;;;;;24.00;12.15;;;;;;;-144.47;59.15;53344.72;5051909;28;20032;-69
2022/05/07 00:58:09;;;;;;;19.20;11.38;;;;;;;-144.47;59.23;53328.81;5052014;28;20401;-69
2022/05/07 01:00:34;;;;;;;20.02;10.85;;;;;;;-144.47;58.92;53326.84;5050785;28;20025;-68
2022/05/07 01:03:00;;;;;;;20.02;11.82;;;;;;;-144.47;59.34;53346.72;5051588;28;20100;-68
2022/05/07 01:05:25;;;;;;;18.35;11.05;;;;;;;-144.47;59.53;53340.75;5050941;28;20410;-67
2022/05/07 01:07:50;;;;;;;18.60;11.18;;;;;;;-144.47;59.30;53332.81;5051399;28;20052;-67
2022/05/07 01:10:17;;;;;;;18.02;10.93;;;;;;;-144.47;59.28;53352.66;5051213;28;20112;-71
2022/05/07 01:12:43;;;;;;;21.42;11.88;;;;;;;-144.47;59.49;53316.91;5051777;28;20052;-68
2022/05/07 01:15:09;;;;;;;26.13;12.07;;;;;;;-144.47;59.76;53370.53;5033566;28;20017;-69
2022/05/07 01:17:34;;;;;;;18.00;11.45;;;;;;;-144.47;59.93;53348.69;5050584;28;20028;-67
2022/05/07 01:19:59;;;;;;;20.00;11.07;;;;;;;-144.47;59.96;53350.69;5050093;28;20108;-69
2022/05/07 01:22:28;;;;;;;16.65;11.10;;;;;;;-144.47;60.04;53372.53;5051468;28;20103;-70
2022/05/07 01:24:54;;;;;;;19.35;11.63;;;;;;;-144.47;60.25;53322.88;5051558;28;20025;-69
2022/05/07 01:27:19;;;;;;;22.58;11.13;;;;;;;-144.47;60.51;53346.72;5051097;28;20075;-70
2022/05/07 01:29:46;;;;;;;21.60;11.85;;;;;;;-144.47;60.58;53328.81;5049665;28;20043;-66
2022/05/07 01:32:11;;;;;;;19.75;12.68;;;;;;;-144.47;60.57;53320.88;5032856;28;20024;-70
2022/05/07 01:34:37;;;;;;;20.33;12.48;;;;;;;-144.47;60.62;53360.63;5032447;28;20021;-66
2022/05/07 01:37:03;;;;;;;23.35;12.77;;;;;;;-144.47;60.44;53324.84;5050505;28;20036;-66
2022/05/07 01:39:28;;;;;;;19.63;11.07;;;;;;;-144.47;60.41;53328.81;5053370;22;20041;-64
2022/05/07 01:41:53;;;;;;;28.92;12.10;;;;;;;-144.47;60.45;53346.72;5029687;28;20029;-60
2022/05/07 01:44:18;;;;;;;23.20;10.93;;;;;;;-144.47;60.44;53358.63;5028870;28;20524;-64
2022/05/07 01:49:28;;;;;;;26.23;11.38;;;;;;;-144.47;60.16;53350.69;5031491;28;20464;-65
2022/05/07 01:51:53;;;;;;;21.48;10.63;;;;;;;-144.47;60.17;53370.53;5031217;28;20056;-62
2022/05/07 01:54:18;;;;;;;15.13;9.32;;;;;;;-144.47;59.76;53332.81;5030405;28;20496;-64
2022/05/07 01:56:43;;;;;;;20.48;10.68;;;;;;;-144.47;59.58;53368.56;5031507;28;20106;-66
2022/05/07 01:59:09;;;;;;;17.38;10.05;;;;;;;-144.47;59.80;53358.63;5030246;28;20018;-64
2022/05/07 02:01:35;;;;;;;17.08;9.52;;;;;;;-144.47;59.87;53318.91;5031031;28;20033;-63
2022/05/07 02:04:00;;;;;;;14.75;9.10;;;;;;;-144.47;59.59;53362.59;5029962;28;20033;-64
2022/05/07 02:06:25;;;;;;;21.33;10.60;;;;;;;-144.47;60.03;53338.75;5031117;28;20029;-63
2022/05/07 02:08:51;;;;;;;15.85;9.65;;;;;;;-144.47;60.06;53392.41;5030056;28;20033;-62
2022/05/07 02:11:16;;;;;;;16.00;9.13;;;;;;;-144.47;60.16;53318.91;5029983;28;20038;-64
2022/05/07 02:13:41;;;;;;;17.38;9.00;;;;;;;-144.47;60.07;53350.69;5030158;28;20028;-62
2022/05/07 02:16:07;;;;;;;17.58;9.73;;;;;;;-144.47;59.72;53358.63;5030783;28;20022;-65
2022/05/07 02:18:32;;;;;;;17.23;9.13;;;;;;;-144.47;59.77;53310.94;5029231;28;20029;-61
2022/05/07 02:20:57;;;;;;;14.15;9.05;;;;;;;-144.47;59.77;53364.59;5029596;28;20112;-65
2022/05/07 02:23:23;;;;;;;19.15;9.93;;;;;;;-144.47;59.23;53358.63;5029799;28;20041;-63
2022/05/07 02:25:48;;;;;;;16.02;9.05;;;;;;;-144.47;59.56;53372.53;5030453;28;20029;-64
2022/05/07 02:28:14;;;;;;;17.38;9.80;;;;;;;-144.47;59.15;53356.63;5030103;28;20097;-64
2022/05/07 02:30:39;;;;;;;14.13;9.02;;;;;;;-144.47;59.07;53291.09;5027848;28;20028;-63
2022/05/07 02:33:05;;;;;;;19.42;9.07;;;;;;;-144.47;59.35;53338.75;5030312;28;20025;-64
2022/05/07 02:35:30;;;;;;;15.32;8.50;;;;;;;-144.47;59.19;53330.81;5027913;28;20377;-65
2022/05/07 02:37:55;;;;;;;17.95;9.48;;;;;;;-144.47;59.13;53324.84;5025570;28;20021;-63
2022/05/07 02:40:21;;;;;;;16.80;8.25;;;;;;;-144.47;59.13;53324.84;5029024;28;20116;-62
2022/05/07 02:42:46;;;;;;;13.60;8.05;;;;;;;-144.47;58.89;53308.97;5029953;28;20025;-65
2022/05/07 02:45:13;;;;;;;12.35;8.02;;;;;;;-144.47;58.83;53308.97;5028279;28;20057;-63
2022/05/07 02:47:40;;;;;;;15.82;8.00;;;;;;;-144.47;58.54;53348.69;5030070;28;20025;-66
2022/05/07 02:50:08;;;;;;;14.48;8.50;;;;;;;-144.47;58.31;53356.63;5029734;28;20032;-65
2022/05/07 02:52:33;;;;;;;16.17;7.78;;;;;;;-144.47;58.23;53277.19;5028477;28;20029;-63
2022/05/07 02:55:03;;;;;;;13.07;8.40;;;;;;;-144.47;58.21;53352.66;5028823;28;20036;-65
2022/05/07 02:57:29;;;;;;;29.77;9.75;;;;;;;-144.47;58.78;53344.72;5029980;28;20112;-64
2022/05/07 02:59:54;;;;;;;14.55;8.50;;;;;;;-144.47;59.00;53358.63;5029227;28;20457;-63
2022/05/07 03:02:20;;;;;;;15.60;7.82;;;;;;;-144.47;58.85;53305.00;5029658;28;20462;-63
2022/05/07 03:04:47;;;;;;;16.63;7.80;;;;;;;-144.47;59.07;53368.56;5029230;28;20044;-66
2022/05/07 03:07:13;;;;;;;19.63;8.30;;;;;;;-144.47;59.60;53366.56;5029668;28;20025;-62
2022/05/07 03:09:38;;;;;;;15.77;7.47;;;;;;;-144.47;59.49;53374.50;5028979;28;20095;-66
2022/05/07 03:12:04;;;;;;;13.27;7.38;;;;;;;-144.47;59.12;53368.56;5028765;28;20055;-63
2022/05/07 03:14:29;;;;;;;21.92;8.57;;;;;;;-144.47;59.33;53356.63;5029565;28;20021;-65
2022/05/07 03:16:54;;;;;;;17.75;8.93;;;;;;;-144.47;59.90;53370.53;5029556;28;20059;-65
2022/05/07 03:19:20;;;;;;;19.27;8.40;;;;;;;-144.47;60.25;53338.75;5021887;28;20018;-64
2022/05/07 03:21:46;;;;;;;14.57;8.48;;;;;;;-144.47;59.80;53364.59;5011908;28;20034;-65
2022/05/07 03:24:12;;;;;;;17.40;8.07;;;;;;;-144.47;60.03;53352.66;5017878;28;20077;-63
2022/05/07 03:26:37;;;;;;;16.02;8.45;;;;;;;-144.47;60.21;53332.81;5016171;28;20061;-64
2022/05/07 03:29:02;;;;;;;20.35;8.20;;;;;;;-144.47;60.57;53330.81;5022275;28;20018;-65
2022/05/07 03:31:28;;;;;;;16.88;8.25;;;;;;;-144.47;60.94;53356.63;5022259;28;20021;-65
2022/05/07 03:33:53;;;;;;;22.42;8.75;;;;;;;-144.47;61.23;53354.66;5029432;28;20511;-62
2022/05/07 03:36:21;;;;;;;20.27;9.00;;;;;;;-144.47;61.71;53358.63;5029605;28;20021;-65
2022/05/07 03:38:47;;;;;;;22.40;10.07;;;;;;;-144.47;61.72;53370.53;5016960;28;20084;-65
2022/05/07 03:41:12;;;;;;;19.05;9.38;;;;;;;-144.47;62.21;53328.81;5023691;28;20853;-64
2022/05/07 03:43:39;;;;;;;21.00;9.38;;;;;;;-144.47;62.76;53310.94;5029667;28;20029;-62
2022/05/07 03:46:05;;;;;;;21.77;9.35;;;;;;;-144.47;62.75;53342.72;5029505;28;20152;-64
2022/05/07 03:48:30;;;;;;;17.67;9.52;;;;;;;-144.47;62.68;53316.91;5029547;28;20100;-62
2022/05/07 03:50:56;;;;;;;21.98;9.80;;;;;;;-144.47;63.15;53354.66;5029661;28;20028;-65
2022/05/07 03:53:30;;;;;;;23.55;9.05;;;;;;;-144.47;63.28;53318.91;5028569;28;20108;-63
2022/05/07 03:55:56;;;;;;;18.52;9.35;;;;;;;-144.47;63.35;53320.88;5027938;28;20057;-63
2022/05/07 03:58:22;;;;;;;15.63;8.75;;;;;;;-144.47;63.26;53326.84;5028002;28;20480;-62
2022/05/07 04:00:47;;;;;;;19.48;9.80;;;;;;;-144.47;63.78;53342.72;5027692;28;20040;-65
2022/05/07 04:03:13;;;;;;;17.48;9.18;;;;;;;-144.47;63.62;53338.75;5024316;28;20021;-64
2022/05/07 04:05:39;;;;;;;19.02;8.45;;;;;;;-144.47;63.43;53340.75;5024780;28;20021;-65
2022/05/07 04:08:05;;;;;;;18.83;7.88;;;;;;;-144.47;63.03;53334.78;5029423;28;20396;-66
2022/05/07 04:10:30;;;;;;;16.10;7.80;;;;;;;-144.47;62.96;53324.84;5028883;28;20053;-63
2022/05/07 04:12:56;;;;;;;16.83;8.27;;;;;;;-144.47;62.95;53334.78;5029253;28;20451;-67
2022/05/07 04:15:22;;;;;;;14.50;7.13;;;;;;;-144.47;62.60;53398.34;5028258;28;20038;-64
2022/05/07 04:17:48;;;;;;;16.98;7.93;;;;;;;-144.47;61.99;53344.72;5017946;28;20419;-68
2022/05/07 04:20:13;;;;;;;20.58;8.15;;;;;;;-144.47;62.13;53340.75;5016054;28;20045;-63
2022/05/07 04:22:39;;;;;;;19.00;8.02;;;;;;;-144.47;62.21;53310.94;5029007;28;20040;-66
2022/05/07 04:25:07;;;;;;;17.75;7.10;;;;;;;-144.47;61.86;53348.69;5028838;28;20693;-67
2022/05/07 04:27:32;;;;;;;20.95;7.85;;;;;;;-144.47;61.62;53334.78;5011021;28;20034;-66
2022/05/07 04:29:58;;;;;;;15.98;8.52;;;;;;;-144.47;61.50;53324.84;5024166;28;20035;-66
2022/05/07 04:32:24;;;;;;;15.98;7.28;;;;;;;-144.47;60.10;53306.97;5023090;28;20053;-66
2022/05/07 04:34:50;;;;;;;23.40;7.47;;;;;;;-144.47;59.31;53291.09;5012216;28;20057;-67
2022/05/07 04:37:15;;;;;;;20.13;6.47;;;;;;;-144.47;59.72;53372.53;5025051;28;20429;-64
2022/05/07 04:39:40;;;;;;;19.25;7.90;;;;;;;-144.47;58.95;53330.81;5028934;28;20033;-65
2022/05/07 04:42:06;;;;;;;21.25;6.63;;;;;;;-144.47;58.88;53338.75;5030701;28;20099;-64
2022/05/07 04:44:31;;;;;;;19.42;7.20;;;;;;;-144.47;58.88;53336.78;5032023;28;20032;-66
2022/05/07 04:46:57;;;;;;;24.67;7.65;;;;;;;-144.47;59.08;53332.81;5032388;28;20022;-66
2022/05/07 04:49:23;;;;;;;35.58;9.23;;;;;;;-144.47;58.20;53344.72;5030374;28;20029;-64
2022/05/07 04:51:50;;;;;;;26.30;8.13;;;;;;;-144.47;57.89;53352.66;5031470;28;20028;-66
2022/05/07 04:54:20;;;;;;;21.02;8.05;;;;;;;-144.47;57.36;53312.94;5031454;28;20028;-65
2022/05/07 04:56:46;;;;;;;16.70;6.40;;;;;;;-144.47;57.36;53348.69;5031470;28;20439;-64
2022/05/07 04:59:13;;;;;;;19.83;7.00;;;;;;;-144.47;56.76;53324.84;5030374;28;20029;-63
2022/05/07 05:01:38;;;;;;;22.88;7.38;;;;;;;-144.47;56.35;53318.91;5032284;28;20105;-64
2022/05/07 05:04:04;;;;;;;14.93;6.70;;;;;;;-144.47;55.98;53328.81;5031597;28;20112;-63
2022/05/07 05:06:29;;;;;;;18.85;7.80;;;;;;;-144.47;55.83;53338.75;5032283;28;20030;-66
2022/05/07 05:08:54;;;;;;;16.60;7.20;;;;;;;-144.47;55.45;53308.97;5031335;28;20377;-63
2022/05/07 05:11:20;;;;;;;15.23;6.93;;;;;;;-144.47;55.50;53285.13;5031986;28;20031;-63
2022/05/07 05:13:45;;;;;;;17.88;6.97;;;;;;;-144.47;54.79;53306.97;5032843;28;20032;-66
2022/05/07 05:16:10;;;;;;;14.75;6.93;;;;;;;-144.47;54.65;53322.88;5032248;28;20029;-64
2022/05/07 05:18:36;;;;;;;16.08;7.45;;;;;;;-144.47;54.30;53308.97;5031982;28;20102;-66
2022/05/07 05:21:01;;;;;;;17.85;7.03;;;;;;;-144.47;54.30;53352.66;5032035;28;20126;-64
2022/05/07 05:23:26;;;;;;;14.68;6.95;;;;;;;-144.47;53.93;53316.91;5031534;28;20065;-65
2022/05/07 05:25:52;;;;;;;14.80;7.03;;;;;;;-144.47;54.00;53332.81;5031363;28;20033;-65
2022/05/07 05:28:17;;;;;;;13.00;6.72;;;;;;;-144.47;54.16;53320.88;5031920;28;20037;-64
2022/05/07 05:30:42;;;;;;;13.93;6.82;;;;;;;-144.47;54.63;53320.88;5031343;28;20424;-65
2022/05/07 05:33:08;;;;;;;13.27;7.25;;;;;;;-144.47;55.07;53326.84;5031081;28;20505;-63
2022/05/07 05:35:33;;;;;;;12.70;6.60;;;;;;;-144.47;56.19;53336.78;5030975;28;20060;-65
2022/05/07 05:37:58;;;;;;;20.80;8.20;;;;;;;-144.47;56.00;53243.41;5031188;28;20215;-62
2022/05/07 05:40:24;;;;;;;20.30;7.10;;;;;;;-144.47;55.52;53348.69;5030648;28;20029;-64
2022/05/07 05:42:49;;;;;;;10.27;6.50;;;;;;;-144.47;55.10;53324.84;5031376;28;20490;-64
2022/05/07 05:45:14;;;;;;;11.68;6.68;;;;;;;-144.47;55.18;53338.75;5031574;28;20025;-65
2022/05/07 05:47:40;;;;;;;17.48;8.00;;;;;;;-144.47;55.25;53312.94;5030836;28;20541;-67
2022/05/07 05:50:05;;;;;;;12.18;6.95;;;;;;;-144.47;55.00;53269.22;5029795;28;20044;-67
2022/05/07 05:52:32;;;;;;;12.50;6.78;;;;;;;-144.47;55.27;53291.09;5030600;28;20021;-65
2022/05/07 05:54:57;;;;;;;12.48;6.80;;;;;;;-144.47;55.27;53308.97;5030995;28;20031;-67
2022/05/07 05:57:22;;;;;;;14.77;6.38;;;;;;;-144.47;55.12;53312.94;5020366;28;20041;-66
2022/05/07 05:59:48;;;;;;;13.80;6.13;;;;;;;-144.47;55.08;53257.31;5027587;28;20100;-67
2022/05/07 06:02:17;;;;;;;14.68;7.18;;;;;;;-144.47;55.08;53301.03;5030577;28;20031;-68
2022/05/07 06:04:43;;;;;;;12.88;6.80;;;;;;;-144.47;55.25;53301.03;5017376;28;20029;-67
2022/05/07 06:07:08;;;;;;;16.02;7.00;;;;;;;-144.47;55.22;53336.78;5029983;28;20495;-65
2022/05/07 06:09:33;;;;;;;15.60;6.88;;;;;;;-144.47;54.73;53301.03;5029915;28;20397;-67
2022/05/07 06:11:59;;;;;;;16.48;7.05;;;;;;;-144.47;54.95;53297.03;5029851;28;20107;-66
2022/05/07 06:14:25;;;;;;;11.27;6.32;;;;;;;-144.47;54.83;53320.88;5030370;28;20071;-68
2022/05/07 06:16:51;;;;;;;13.48;8.02;;;;;;;-144.47;54.73;53295.06;5029917;28;20120;-67
2022/05/07 06:19:16;;;;;;;17.23;7.25;;;;;;;-144.47;54.78;53305.00;5028276;28;20051;-69
2022/05/07 06:21:42;;;;;;;23.40;9.40;;;;;;;-144.47;54.30;53322.88;5030569;28;20029;-66
2022/05/07 06:29:35;;;;;;;15.57;7.35;;;;;;;-144.47;54.00;53316.91;5029402;28;20037;-67
2022/05/07 06:32:00;;;;;;;17.90;7.47;;;;;;;-144.47;54.25;53295.06;5028302;28;20026;-68
2022/05/07 06:34:26;;;;;;;19.98;7.40;;;;;;;-144.47;53.78;53291.09;5030141;28;20033;-66
2022/05/07 06:36:51;;;;;;;16.17;6.97;;;;;;;-144.47;52.85;53326.84;5029448;28;20467;-68
2022/05/07 06:39:18;;;;;;;18.88;7.13;;;;;;;-144.47;52.64;53310.94;5027842;28;20523;-66
2022/05/07 06:41:43;;;;;;;18.88;7.75;;;;;;;-144.47;52.71;53291.09;5025744;28;20700;-65
2022/05/07 06:44:08;;;;;;;17.33;6.85;;;;;;;-144.47;52.77;53308.97;5030068;28;20029;-66
2022/05/07 06:46:33;;;;;;;18.45;7.45;;;;;;;-144.47;53.16;53299.03;5031900;28;20190;-65
2022/05/07 06:48:59;;;;;;;19.65;7.88;;;;;;;-144.47;53.52;53312.94;5036940;28;20056;-67
2022/05/07 06:51:24;;;;;;;21.88;8.30;;;;;;;-144.47;53.45;53297.03;5029777;28;20040;-65
2022/05/07 06:53:50;;;;;;;17.92;9.18;;;;;;;-144.47;52.86;53271.22;5030129;28;20075;-67
2022/05/07 06:56:15;;;;;;;17.08;8.63;;;;;;;-144.47;52.65;53322.88;5029535;28;20422;-66
2022/05/07 06:58:41;;;;;;;22.27;9.88;;;;;;;-144.47;51.79;53269.22;5021066;28;20026;-64
2022/05/07 07:01:07;;;;;;;18.38;8.90;;;;;;;-144.47;51.82;53291.09;5030443;28;20417;-66
2022/05/07 07:03:33;;;;;;;19.35;8.38;;;;;;;-144.47;51.94;53249.38;5024993;28;20807;-67
2022/05/07 07:05:59;;;;;;;25.17;9.02;;;;;;;-144.47;51.87;53279.16;5042217;28;20026;-67
2022/05/07 07:08:24;;;;;;;21.40;9.05;;;;;;;-144.47;51.72;53324.84;5029044;28;20030;-68
2022/05/07 07:10:50;;;;;;;18.10;7.57;;;;;;;-144.47;51.36;53285.13;5029341;28;20021;-65
2022/05/07 07:13:18;;;;;;;17.15;8.43;;;;;;;-144.47;50.65;53285.13;5021439;28;20488;-67
2022/05/07 07:15:44;;;;;;;17.58;8.27;;;;;;;-144.47;49.90;53279.16;5028511;28;20029;-64
2022/05/07 07:18:10;;;;;;;17.73;7.25;;;;;;;-144.47;49.39;53291.09;5029597;28;20044;-64
2022/05/07 07:20:40;;;;;;;12.63;6.55;;;;;;;-144.47;48.76;53263.28;5027743;28;20496;-66
2022/05/07 07:23:10;;;;;;;17.70;6.82;;;;;;;-144.47;48.10;53259.31;5029451;28;20025;-67
2022/05/07 07:25:35;;;;;;;14.68;6.45;;;;;;;-144.47;48.27;53273.22;5028819;28;20451;-70
2022/05/07 07:28:00;;;;;;;15.25;5.45;;;;;;;-144.47;47.74;53287.13;5029653;28;20504;-67
2022/05/07 07:30:26;;;;;;;13.05;5.75;;;;;;;-144.47;46.16;53257.31;5024222;28;20037;-68
2022/05/07 07:32:51;;;;;;;14.55;5.97;;;;;;;-144.47;46.67;53281.16;5028451;28;20036;-63
2022/05/07 07:35:17;;;;;;;11.88;5.43;;;;;;;-144.47;46.97;53265.25;5028592;28;20029;-66
2022/05/07 07:37:45;;;;;;;15.80;5.78;;;;;;;-144.47;47.26;53269.22;5028822;28;20484;-65
2022/05/07 07:40:14;;;;;;;12.60;6.38;;;;;;;-144.47;47.14;53273.22;5071817;22;20496;-69
2022/05/07 07:42:42;;;;;;;13.25;5.35;;;;;;;-144.47;46.39;53247.38;5055516;28;20045;-69
2022/05/07 07:48:00;;;;;;;16.27;5.63;;;;;;;-144.47;45.30;53261.28;5048306;28;20040;-69
2022/05/07 07:50:31;;;;;;;17.10;5.68;;;;;;;-144.47;45.37;53253.34;5050068;28;20021;-67
2022/05/07 07:53:00;;;;;;;18.33;5.38;;;;;;;-144.47;45.28;53245.41;5048119;28;20112;-68
2022/05/07 07:55:25;;;;;;;15.02;5.43;;;;;;;-144.47;43.99;53211.63;5047014;28;20025;-68
2022/05/07 07:57:59;;;;;;;10.45;4.88;;;;;;;-144.47;43.94;53253.34;5046249;28;20430;-70
2022/05/07 08:00:26;;;;;;;9.25;4.32;;;;;;;-144.47;42.92;53211.63;5049408;28;20040;-69
2022/05/07 08:02:54;;;;;;;11.35;4.90;;;;;;;-144.47;42.99;53253.34;5046762;28;20029;-67
2022/05/07 08:05:25;;;;;;;12.55;5.00;;;;;;;-144.47;43.25;53261.28;5041359;28;20029;-67
2022/05/07 08:13:20;;;;;;;14.70;4.57;;;;;;;-144.47;42.56;53241.44;5049147;28;20032;-69
2022/05/07 08:15:45;;;;;;;14.60;4.30;;;;;;;-144.47;42.74;53235.47;5047445;28;20017;-67
2022/05/07 08:18:11;;;;;;;10.70;4.45;;;;;;;-144.47;42.25;53235.47;5051530;28;20040;-69
2022/05/07 08:20:36;;;;;;;13.95;4.78;;;;;;;-144.47;41.03;53233.47;5050574;28;20047;-68
2022/05/07 08:23:02;;;;;;;10.60;4.82;;;;;;;-144.47;40.93;53201.69;5051085;28;20066;-71
2022/05/07 08:25:27;;;;;;;9.60;3.70;;;;;;;-144.47;41.27;53195.75;5050360;28;20032;-68
2022/05/07 08:27:52;;;;;;;10.73;4.15;;;;;;;-144.47;41.08;53219.56;5050803;28;20028;-70
2022/05/07 08:30:18;;;;;;;10.73;4.45;;;;;;;-144.47;40.96;53211.63;5051270;28;20021;-68
2022/05/07 08:32:43;;;;;;;11.43;4.22;;;;;;;-144.47;41.30;53243.41;5052615;28;20391;-71
2022/05/07 08:35:10;;;;;;;17.40;4.07;;;;;;;-144.47;41.26;53191.78;5051730;28;20025;-68
2022/05/07 08:37:35;;;;;;;9.40;3.80;;;;;;;-144.47;40.38;53201.69;5050689;28;20565;-72
2022/05/07 08:40:01;;;;;;;8.45;3.63;;;;;;;-144.47;39.84;53197.72;5050419;28;20040;-71
2022/05/07 08:42:36;;;;;;;9.10;3.00;;;;;;;-144.47;39.28;53217.59;5052059;28;20025;-72
2022/05/07 08:45:01;;;;;;;10.07;3.55;;;;;;;-144.47;39.46;53213.63;5043801;28;20060;-70
2022/05/07 08:47:27;;;;;;;9.00;3.70;;;;;;;-144.47;39.83;53215.59;5052352;28;20431;-69
2022/05/07 08:49:52;;;;;;;9.45;4.13;;;;;;;-144.47;39.96;53263.28;5051977;28;20025;-73
2022/05/07 08:52:19;;;;;;;12.95;4.22;;;;;;;-144.47;39.97;53195.75;5051579;28;20112;-70
2022/05/07 08:54:45;;;;;;;9.88;3.65;;;;;;;-144.47;40.05;53183.81;5049926;28;20036;-72
2022/05/07 08:57:11;;;;;;;16.23;3.97;;;;;;;-144.47;39.25;53173.88;5052752;28;20032;-72
2022/05/07 08:59:37;;;;;;;8.32;2.92;;;;;;;-144.47;37.81;53239.44;5051065;28;20029;-73
2022/05/07 09:02:03;;;;;;;11.15;4.30;;;;;;;-144.47;38.52;53213.63;5052857;28;20021;-72
2022/05/07 09:04:28;;;;;;;12.07;4.32;;;;;;;-144.47;38.69;53211.63;5044218;28;20440;-74
2022/05/07 09:06:57;;;;;;;8.48;3.00;;;;;;;-144.47;38.44;53195.75;5052183;28;20051;-71
2022/05/07 09:09:22;;;;;;;;;;;;;;;-144.47;37.91;53213.63;5050984;28;20052;-72
2022/05/07 09:11:47;;;;;;;9.60;3.40;;;;;;;-144.47;38.14;53150.06;5051372;28;19952;-74
2022/05/07 09:14:14;;;;;;;9.05;3.33;;;;;;;-144.47;37.67;53175.88;5048036;28;20120;-71
2022/05/07 09:16:48;;;;;;;7.30;3.00;;;;;;;-144.47;37.29;53165.94;5044696;28;20032;-70
2022/05/07 09:19:25;;;;;;;5.57;2.67;;;;;;;-144.47;37.00;53205.66;5038930;28;20150;-72
2022/05/07 09:21:54;;;;;;;10.88;3.78;;;;;;;-144.47;37.83;53181.84;5051432;28;20029;-70
2022/05/07 09:24:21;;;;;;;17.92;4.07;;;;;;;-144.47;37.65;53189.78;5049871;28;20025;-69
2022/05/07 09:26:47;;;;;;;7.97;3.38;;;;;;;-144.47;36.82;53201.69;5051110;28;20039;-72
2022/05/07 09:29:14;;;;;;;7.78;3.38;;;;;;;-144.47;37.20;53171.91;5050310;28;20025;-70
2022/05/07 09:31:42;;;;;;;7.45;2.97;;;;;;;-144.47;37.21;53179.84;5045927;28;20079;-72
2022/05/07 09:37:01;;;;;;;9.80;3.50;;;;;;;-144.47;36.30;53195.75;5048985;28;20214;-75
2022/05/07 09:39:33;;;;;;;8.20;2.85;;;;;;;-144.47;36.03;53197.72;5049934;28;20032;-68
2022/05/07 09:41:59;;;;;;;5.38;2.30;;;;;;;-144.47;35.73;53205.66;5037346;28;20025;-70
2022/05/07 09:44:28;;;;;;;6.35;2.85;;;;;;;-144.47;35.24;53205.66;5050236;28;20109;-70
2022/05/07 09:46:56;;;;;;;6.25;2.80;;;;;;;-144.47;35.24;53203.69;5048935;28;20029;-69
2022/05/07 09:49:23;;;;;;;;;;;;;;;-144.47;36.36;53199.72;5041036;28;20047;-70
2022/05/07 09:51:49;;;;;;;7.47;3.10;;;;;;;-144.47;36.50;53195.75;5044205;28;20006;-72
2022/05/07 09:59:45;;;;;;;8.80;3.08;;;;;;;-144.47;35.59;53195.75;5044126;28;20079;-72
2022/05/07 10:02:32;;;;;;;7.50;2.70;;;;;;;-144.47;35.50;53171.91;5042135;28;20040;-73
2022/05/07 10:05:25;;;;;;;9.23;2.65;;;;;;;-144.47;35.57;53158.00;5043118;28;20028;-72
2022/05/07 10:08:24;;;;;;;5.55;2.40;;;;;;;-144.47;34.82;53209.66;5043134;28;20086;-71
2022/05/07 10:10:52;;;;;;;6.72;2.55;;;;;;;-144.47;35.35;53142.09;5038992;28;20117;-75
2022/05/07 10:13:18;;;;;;;11.23;3.00;;;;;;;-144.47;34.98;53144.09;5042932;28;20040;-72
2022/05/07 10:15:45;;;;;;;5.65;2.42;;;;;;;-144.47;34.94;53197.72;5041004;28;20429;-71
2022/05/07 10:18:14;;;;;;;8.50;3.00;;;;;;;-144.47;34.92;53167.94;5041146;28;20037;-71
2022/05/07 10:20:48;;;;;;;8.77;2.63;;;;;;;-144.47;35.09;53158.00;5042568;28;20538;-74
2022/05/07 10:23:26;;;;;;;5.40;3.00;;;;;;;-144.47;34.62;53169.91;5045439;28;20082;-74
2022/05/07 10:25:56;;;;;;;8.80;3.17;;;;;;;-144.47;34.30;53160.00;5041462;28;20505;-73
2022/05/07 10:28:22;;;;;;;9.25;3.40;;;;;;;-144.47;34.57;53165.94;5043700;28;20044;-72
2022/05/07 10:30:52;;;;;;;5.88;2.95;;;;;;;-144.47;34.89;53165.94;5039960;28;20032;-73
2022/05/07 10:33:18;;;;;;;8.48;2.67;;;;;;;-144.47;34.89;53199.72;5043261;28;20537;-72
2022/05/07 10:35:54;;;;;;;8.27;2.80;;;;;;;-144.47;34.74;53193.75;5041969;28;20511;-71
2022/05/07 10:38:26;;;;;;;6.80;2.90;;;;;;;-144.47;34.52;53173.88;5042193;28;20080;-74
2022/05/07 10:40:51;;;;;;;7.70;2.45;;;;;;;-144.47;34.31;53169.91;5040579;28;20047;-71
2022/05/07 10:43:38;;;;;;;8.98;2.75;;;;;;;-144.47;34.29;53169.91;5043762;28;20092;-72
2022/05/07 10:46:04;;;;;;;7.43;2.75;;;;;;;-144.47;34.27;53171.91;5041056;28;20156;-70
2022/05/07 10:48:48;;;;;;;7.05;2.50;;;;;;;-144.47;34.05;53163.97;5042147;28;20040;-71
2022/05/07 10:51:29;;;;;;;6.82;2.72;;;;;;;-144.47;33.90;53163.97;5042999;28;20029;-70
2022/05/07 10:54:03;;;;;;;10.35;3.15;;;;;;;-144.47;33.16;53160.00;5044902;28;20037;-72
2022/05/07 10:56:34;;;;;;;7.10;2.78;;;;;;;-144.47;32.91;53150.06;5040107;28;20016;-72
2022/05/07 10:59:00;;;;;;;6.65;2.70;;;;;;;-144.47;32.78;53163.97;5044528;28;20534;-70
2022/05/07 11:01:28;;;;;;;5.50;2.50;;;;;;;-144.47;32.79;53205.66;5034341;28;20045;-70
2022/05/07 11:04:06;;;;;;;10.57;3.00;;;;;;;-144.47;32.65;53161.97;5038747;28;20451;-71
2022/05/07 11:06:44;;;;;;;7.00;3.20;;;;;;;-144.47;32.53;53191.78;5040238;28;20128;-70
2022/05/07 11:09:22;;;;;;;6.40;2.45;;;;;;;-144.47;32.03;53144.09;5038966;28;20074;-70
2022/05/07 11:11:49;;;;;;;8.07;1.80;;;;;;;-144.47;31.84;53148.06;5041730;28;20025;-72
2022/05/07 11:14:25;;;;;;;6.05;2.50;;;;;;;-144.47;31.39;53136.16;5039864;28;20098;-69
2022/05/07 11:16:52;;;;;;;7.13;2.53;;;;;;;-144.47;31.74;53124.22;5042717;28;20032;-68
2022/05/07 11:19:28;;;;;;;7.43;2.40;;;;;;;-144.47;31.78;53161.97;5039551;28;20017;-70
2022/05/07 11:21:55;;;;;;;5.25;1.95;;;;;;;-144.47;31.78;53110.31;5042279;28;20151;-70
2022/05/07 11:24:20;;;;;;;4.72;2.00;;;;;;;-144.47;31.71;53191.78;5040888;28;20643;-71
2022/05/07 11:26:58;;;;;;;6.10;2.45;;;;;;;-144.47;31.61;53158.00;5034285;28;20033;-71
2022/05/07 11:29:24;;;;;;;4.68;2.25;;;;;;;-144.47;31.27;53161.97;5035905;28;20143;-70
2022/05/07 11:32:04;;;;;;;10.57;2.20;;;;;;;-144.47;31.25;53136.16;5035511;28;20055;-70
2022/05/07 11:34:37;;;;;;;4.70;2.03;;;;;;;-144.47;31.13;53161.97;5036857;28;20033;-71
2022/05/07 11:37:14;;;;;;;8.05;2.08;;;;;;;-144.47;31.01;53150.06;5033762;28;20036;-72
2022/05/07 11:39:59;;;;;;;6.43;2.10;;;;;;;-144.47;30.31;53132.19;5039160;28;20033;-71